メインページ
METAR-TAF:

METAR-TAF

空港 :

ケルマーン, イラン

緯度: 30-15N, 経度: 056-58E, 海抜: 1748m

現時点の気象観測

当レポートは1時間17分前の17:00(UTC)に作成
北/北東の風 4kt
気温 9°C
湿度 17%
気圧 1025 hPa
視程10km以上
高度4000ftの雲はほとんどない
高度20000ftの雲は散在している

METAR: OIKK 171700Z 02004KT 9999 FEW040 SCT200 09/M15 Q1025 A3027

時間: 21:47 (18:17 UTC)

予報

当レポートは6時間47分前の11:30(UTC)に作成
予報は17日の 12時(UTC)から 18日の 18時(UTC)まで有効
南/南東の風 6kt
視程: 7000m
高度4000ftの雲はほとんどない
高度10000ftの雲は散在している
17日の 12時(UTC)から 17日の 15時(UTC)まで一時的に
南東の風 14kt
高度3500ftの雲はほとんどない, 積乱雲.
高度4000ftの雲は散在している
高度10000ftの雲は散在している
18日の 06時(UTC)から 18日の 08時(UTC)まで徐々に
高度3000ftの雲はほとんどない, 積乱雲.
高度3500ftの雲は散在している
高度10000ftの千切れ雲あり
確率 40% :
18日の 08時(UTC)から 18日の 18時(UTC)まで一時的に
視程: 4000m
高度3000ftの雲は散在している, 積乱雲.
高度3500ftの雲は散在している
高度10000ftの千切れ雲あり
激しい雷雨, 雨

TAF: OIKK 171130Z 1712/1818 15006KT 7000 FEW040 SCT100 TEMPO 1712/1715 14014KT FEW035CB SCT040 SCT100 BECMG 1806/1808 FEW030CB SCT035 BKN100 PROB40 TEMPO 1808/1818 4000 TSRA SCT030CB SCT035 BKN100

4,000以上の空港の気象観測と天気予報(METAR報とTAF報)

利用可能な観測所は地図上に黄色い丸と赤い丸で示す。

丸の上にカーソルを重ねると観測所名を参照できる。

次にクリックすると気象観測と天気予報を参照できる。

マップの切り替え:黒色「×」印の緑ボタンをクリックして拡大、「-」印の緑ボタンをクリックして縮小、緑色の三角印をクリックして隣りの地図に切り替え


METAR-TAF: